createdAt,value
2022-11-17T00:00:02.469Z,99546.91
2022-11-17T00:05:04.081Z,99548.63
2022-11-17T00:10:06.024Z,99560.34
2022-11-17T00:15:07.568Z,99525.25
2022-11-17T00:20:30.621Z,99508.38
2022-11-17T00:25:32.066Z,99502.72
2022-11-17T00:30:51.891Z,99524.31
2022-11-17T00:35:53.575Z,99498.91
2022-11-17T00:40:55.027Z,99494.66
2022-11-17T00:45:56.494Z,99497.94
2022-11-17T00:50:57.942Z,99500.22
2022-11-17T00:55:59.405Z,99458.09
2022-11-17T01:01:01.106Z,99502.94
2022-11-17T01:06:07.064Z,99459.06
2022-11-17T01:11:13.315Z,99451.84
2022-11-17T01:16:18.555Z,99442.09
2022-11-17T01:21:21.708Z,99452.97
2022-11-17T01:26:24.940Z,99435.56
2022-11-17T01:31:28.092Z,99412.31
2022-11-17T01:36:30.057Z,99413.06
2022-11-17T01:41:31.504Z,99416.19
2022-11-17T01:46:37.760Z,99434.56
2022-11-17T01:51:42.212Z,99442.78
2022-11-17T01:56:44.379Z,99404.66
2022-11-17T02:01:55.718Z,99378.69
2022-11-17T02:07:01.209Z,99395.06
2022-11-17T02:12:02.714Z,99360.72
2022-11-17T02:17:11.531Z,99340.63
2022-11-17T02:22:49.475Z,99341.63
2022-11-17T02:28:10.927Z,99326.84
2022-11-17T02:33:13.463Z,99330.63
2022-11-17T02:38:23.819Z,99297.38
2022-11-17T02:43:46.271Z,99279.66
2022-11-17T02:48:54.795Z,99317.09
2022-11-17T02:53:56.518Z,99298.81
2022-11-17T02:58:59.654Z,99308.31
2022-11-17T03:04:21.204Z,99262.06
2022-11-17T03:09:42.221Z,99291.06
2022-11-17T03:14:58.514Z,99294.31
2022-11-17T03:20:12.560Z,99276.34
2022-11-17T03:25:15.001Z,99248.56
2022-11-17T03:30:16.508Z,99250.78
2022-11-17T03:35:20.036Z,99239.84
2022-11-17T03:40:23.291Z,99245.31
2022-11-17T03:45:35.296Z,99212.06
2022-11-17T03:50:37.957Z,99211.25
2022-11-17T03:55:50.323Z,99211.69
2022-11-17T04:00:52.130Z,99221.50
2022-11-17T04:05:53.585Z,99219.72
2022-11-17T04:11:14.447Z,99197.13
2022-11-17T04:16:15.888Z,99217.84
2022-11-17T04:21:17.354Z,99198.84
2022-11-17T04:26:37.082Z,99207.75
2022-11-17T04:31:38.530Z,99213.16
2022-11-17T04:36:43.789Z,99195.97
2022-11-17T04:41:54.241Z,99185.44
2022-11-17T04:46:55.860Z,99189.06
2022-11-17T04:51:57.311Z,99221.91
2022-11-17T04:56:58.765Z,99196.00
2022-11-17T05:02:05.658Z,99188.09
2022-11-17T05:07:08.149Z,99205.06
2022-11-17T05:12:28.083Z,99212.59
2022-11-17T05:17:29.798Z,99203.38
2022-11-17T05:22:49.855Z,99169.47
2022-11-17T05:27:51.316Z,99209.03
2022-11-17T05:32:52.779Z,99207.78
2022-11-17T05:37:54.240Z,99180.59
2022-11-17T05:42:57.215Z,99196.78
2022-11-17T05:47:58.656Z,99175.63
2022-11-17T05:53:00.115Z,99146.75
2022-11-17T05:58:15.751Z,99161.81
2022-11-17T06:03:22.517Z,99171.84
2022-11-17T06:08:23.961Z,99163.16
2022-11-17T06:13:28.897Z,99151.66
2022-11-17T06:18:38.459Z,99153.41
2022-11-17T06:23:39.914Z,99131.28
2022-11-17T06:28:41.735Z,99108.78
2022-11-17T06:33:43.286Z,99132.25
2022-11-17T06:38:44.745Z,99138.81
2022-11-17T06:43:46.200Z,99165.75
2022-11-17T06:48:48.031Z,99123.19
2022-11-17T06:53:49.494Z,99120.25
2022-11-17T06:58:50.952Z,99106.69
2022-11-17T07:03:52.477Z,99112.06
2022-11-17T07:08:53.940Z,99108.41
2022-11-17T07:13:55.390Z,99122.09
2022-11-17T07:18:59.094Z,99117.91
2022-11-17T07:24:00.590Z,99095.09
2022-11-17T07:29:02.049Z,99074.63
2022-11-17T07:34:03.514Z,99077.16
2022-11-17T07:39:05.616Z,99072.56
2022-11-17T07:44:07.063Z,99067.41
2022-11-17T07:49:08.526Z,99088.25
2022-11-17T07:54:10.007Z,99129.53
2022-11-17T07:59:11.462Z,99105.06
2022-11-17T08:04:12.933Z,99074.22
2022-11-17T08:09:15.712Z,99063.53
2022-11-17T08:14:17.221Z,99078.78
2022-11-17T08:19:18.684Z,99074.78
2022-11-17T08:24:20.129Z,99094.94
2022-11-17T08:29:21.626Z,99086.75
2022-11-17T08:34:23.092Z,99069.06
2022-11-17T08:39:24.565Z,99066.56
2022-11-17T08:44:26.172Z,99068.75
2022-11-17T08:49:27.744Z,99070.34
2022-11-17T08:54:29.191Z,99071.25
2022-11-17T08:59:30.635Z,99071.13
2022-11-17T09:04:32.083Z,99071.59
2022-11-17T09:09:33.573Z,99051.97
2022-11-17T09:14:35.108Z,99065.91
2022-11-17T09:19:36.627Z,99030.63
2022-11-17T09:24:38.088Z,99052.81
2022-11-17T09:29:39.948Z,99048.06
2022-11-17T09:34:41.552Z,99066.59
2022-11-17T09:39:43.938Z,99045.00
2022-11-17T09:45:25.635Z,99049.47
2022-11-17T09:50:35.316Z,99049.69
2022-11-17T09:55:43.243Z,99036.66
2022-11-17T10:00:48.744Z,99009.75
2022-11-17T10:05:50.361Z,99023.09
2022-11-17T10:10:51.854Z,99053.88
2022-11-17T10:15:58.511Z,99009.38
2022-11-17T10:20:59.991Z,98991.44
2022-11-17T10:26:01.462Z,99027.38
2022-11-17T10:31:03.713Z,98995.66
2022-11-17T10:36:14.247Z,99024.06
2022-11-17T10:41:38.945Z,99018.81
2022-11-17T10:47:07.977Z,99014.50
2022-11-17T10:52:09.292Z,99041.72
2022-11-17T10:57:22.588Z,99003.38
2022-11-17T11:02:31.405Z,99016.94
2022-11-17T11:07:32.894Z,98994.56
2022-11-17T11:12:35.837Z,99024.47
2022-11-17T11:17:37.296Z,99017.22
2022-11-17T11:22:43.208Z,99023.13
2022-11-17T11:27:52.327Z,99014.63
2022-11-17T11:33:06.479Z,99003.25
2022-11-17T11:38:22.176Z,99040.69
2022-11-17T11:43:35.856Z,99005.03
2022-11-17T11:48:37.334Z,99005.31
2022-11-17T11:53:43.350Z,99028.00
2022-11-17T11:58:47.974Z,99015.56
2022-11-17T12:04:04.233Z,99051.84
2022-11-17T12:09:30.261Z,99014.59
2022-11-17T12:14:32.965Z,98998.19
2022-11-17T12:19:55.163Z,99046.91
2022-11-17T12:25:03.995Z,99012.31
2022-11-17T12:30:06.435Z,98983.44
2022-11-17T12:35:28.143Z,99015.06
2022-11-17T12:40:38.674Z,99021.84
2022-11-17T12:45:58.213Z,99007.69
2022-11-17T12:51:26.782Z,99020.81
2022-11-17T12:56:42.382Z,99007.81
2022-11-17T13:01:56.250Z,99028.13
2022-11-17T13:07:01.414Z,99060.75
2022-11-17T13:12:07.051Z,99045.31
2022-11-17T13:17:11.494Z,99026.00
2022-11-17T13:22:13.740Z,99042.56
2022-11-17T13:27:31.268Z,99072.69
2022-11-17T13:32:32.741Z,99065.34
2022-11-17T13:37:34.195Z,99041.44
2022-11-17T13:42:35.670Z,99058.56
2022-11-17T13:47:36.962Z,99040.00
2022-11-17T13:52:45.331Z,99074.38
2022-11-17T13:57:56.659Z,99047.56
2022-11-17T14:02:59.603Z,99068.81
2022-11-17T14:08:33.687Z,99077.28
2022-11-17T14:13:44.522Z,99081.53
2022-11-17T14:18:56.039Z,99057.59
2022-11-17T14:24:05.345Z,99077.84
2022-11-17T14:29:10.220Z,99069.09
2022-11-17T14:34:11.738Z,99078.97
2022-11-17T14:39:15.076Z,99081.66
2022-11-17T14:44:16.704Z,99077.44
2022-11-17T14:49:18.350Z,99084.69
2022-11-17T14:54:19.903Z,99081.91
2022-11-17T14:59:21.348Z,99111.75
2022-11-17T15:09:44.706Z,99101.09
2022-11-17T15:14:49.324Z,99105.84
2022-11-17T15:19:50.776Z,99106.69
2022-11-17T15:24:52.227Z,99099.44
2022-11-17T15:29:53.921Z,99118.25
2022-11-17T15:34:55.383Z,99142.09
2022-11-17T15:39:56.851Z,99119.19
2022-11-17T15:44:58.300Z,99109.25
2022-11-17T15:49:59.745Z,99123.72
2022-11-17T15:55:01.192Z,99137.28
2022-11-17T16:00:04.226Z,99104.47
2022-11-17T16:05:06.266Z,99114.34
2022-11-17T16:10:07.855Z,99128.59
2022-11-17T16:15:09.435Z,99134.59
2022-11-17T16:20:11.317Z,99145.16
2022-11-17T16:25:12.877Z,99157.25
2022-11-17T16:30:14.883Z,99146.00
2022-11-17T16:35:16.371Z,99147.56
2022-11-17T16:40:18.436Z,99125.91
2022-11-17T16:45:20.001Z,99148.13
2022-11-17T16:50:21.466Z,99147.16
2022-11-17T16:55:22.952Z,99150.84
2022-11-17T17:00:24.417Z,99157.00
2022-11-17T17:05:25.931Z,99163.94
2022-11-17T17:10:27.391Z,99157.03
2022-11-17T17:15:28.838Z,99182.25
2022-11-17T17:20:30.290Z,99168.81
2022-11-17T17:25:32.555Z,99163.84
2022-11-17T17:30:34.002Z,99168.00
2022-11-17T17:35:35.445Z,99178.34
2022-11-17T17:40:36.891Z,99181.31
2022-11-17T17:45:38.483Z,99188.41
2022-11-17T17:50:40.166Z,99192.41
2022-11-17T17:55:41.649Z,99205.38
2022-11-17T18:00:43.518Z,99213.03
2022-11-17T18:05:46.219Z,99203.41
2022-11-17T18:10:47.672Z,99217.84
2022-11-17T18:15:49.167Z,99238.94
2022-11-17T18:21:06.557Z,99236.84
2022-11-17T18:26:21.849Z,99247.84
2022-11-17T18:31:24.189Z,99263.34
2022-11-17T18:36:26.200Z,99263.16
2022-11-17T18:41:30.500Z,99245.34
2022-11-17T18:46:32.190Z,99262.00
2022-11-17T18:51:34.406Z,99257.13
2022-11-17T18:56:36.530Z,99253.91
2022-11-17T19:01:39.021Z,99293.88
2022-11-17T19:06:40.576Z,99280.81
2022-11-17T19:11:42.097Z,99290.38
2022-11-17T19:16:45.093Z,99298.78
2022-11-17T19:21:46.691Z,99299.25
2022-11-17T19:26:48.167Z,99308.16
2022-11-17T19:31:51.101Z,99326.75
2022-11-17T19:36:52.882Z,99316.44
2022-11-17T19:41:54.368Z,99328.84
2022-11-17T19:46:55.881Z,99289.47
2022-11-17T19:51:57.372Z,99330.09
2022-11-17T19:56:58.890Z,99287.38
2022-11-17T20:02:00.355Z,99321.16
2022-11-17T20:07:01.881Z,99323.13
2022-11-17T20:12:03.455Z,99326.75
2022-11-17T20:17:04.902Z,99331.63
2022-11-17T20:22:06.439Z,99328.31
2022-11-17T20:27:07.891Z,99349.03
2022-11-17T20:32:09.360Z,99336.53
2022-11-17T20:37:11.866Z,99338.47
2022-11-17T20:42:17.092Z,99356.28
2022-11-17T20:47:18.537Z,99367.44
2022-11-17T20:52:20.191Z,99370.09
2022-11-17T20:57:21.654Z,99371.28
2022-11-17T21:02:23.114Z,99375.66
2022-11-17T21:07:24.601Z,99376.16
2022-11-17T21:12:26.119Z,99383.81
2022-11-17T21:17:46.109Z,99380.72
2022-11-17T21:22:47.618Z,99387.28
2022-11-17T21:27:49.076Z,99404.38
2022-11-17T21:32:50.599Z,99415.53
2022-11-17T21:37:52.077Z,99431.72
2022-11-17T21:42:53.526Z,99425.09
2022-11-17T21:47:59.212Z,99440.88
2022-11-17T21:53:01.392Z,99440.19
2022-11-17T21:58:02.867Z,99459.56
2022-11-17T22:03:04.354Z,99465.34
2022-11-17T22:08:05.902Z,99474.91
2022-11-17T22:13:08.272Z,99472.28
2022-11-17T22:18:09.733Z,99479.19
2022-11-17T22:23:11.203Z,99483.69
2022-11-17T22:28:12.695Z,99495.09
2022-11-17T22:33:14.182Z,99482.91
2022-11-17T22:38:15.895Z,99472.06
2022-11-17T22:43:17.339Z,99473.19
2022-11-17T22:48:18.804Z,99479.81
2022-11-17T22:53:20.354Z,99492.97
2022-11-17T22:58:21.839Z,99510.56
2022-11-17T23:03:23.541Z,99486.59
2022-11-17T23:08:25.062Z,99498.06
2022-11-17T23:13:26.517Z,99493.41
2022-11-17T23:18:28.001Z,99525.47
2022-11-17T23:23:33.071Z,99518.28
2022-11-17T23:28:34.547Z,99516.06
2022-11-17T23:33:37.488Z,99531.53
2022-11-17T23:38:38.959Z,99533.44
2022-11-17T23:43:40.476Z,99543.41
2022-11-17T23:48:42.024Z,99552.09
2022-11-17T23:53:43.530Z,99563.69
2022-11-17T23:58:44.997Z,99561.09
